Terminal Aerodrome Forecast
Issued by NWS Charleston, WV

Current Version | Previous Version | Graphics & Text | Print | Product List | Glossary On
Versions: 1 2 3 4 5 6 7 8 9 10 11 12 13 14 15 16 17 18 19 20 21
000
FTUS41 KRLX 231100
TAFEKN
TAF
KEKN 231120Z 2312/2412 18005KT P6SM BKN250
     FM232100 19008KT 5SM -RA OVC035
     FM232200 16006KT 3SM -RA BR OVC025
     FM240000 07005KT 2SM -RA BR OVC015
     FM240500 00000KT 2SM -RA BR OVC008
     FM240800 00000KT 1SM -SN BR OVC008=

USA.gov is the U.S. government's official web portal to all federal, state and local government web resources and services.